createdAt,value
2017-05-14T00:40:06.922Z,99.99
2017-05-14T00:50:06.982Z,99.99
2017-05-14T01:00:06.932Z,99.99
2017-05-14T01:10:06.931Z,99.99
2017-05-14T02:20:08.038Z,99.99
2017-05-14T02:30:07.975Z,99.99
2017-05-14T02:50:12.017Z,99.99
2017-05-14T03:00:06.923Z,99.99
2017-05-14T03:10:10.986Z,99.99
2017-05-14T03:20:06.915Z,99.99
2017-05-14T03:30:06.916Z,99.99
2017-05-14T03:40:06.911Z,99.99
2017-05-14T03:50:06.913Z,99.99
2017-05-14T04:00:07.928Z,99.99
2017-05-14T04:10:06.909Z,99.99
2017-05-14T04:20:06.908Z,99.99
2017-05-14T04:30:06.902Z,99.99
2017-05-14T04:40:06.907Z,99.99
2017-05-14T04:50:07.924Z,99.99
2017-05-14T05:10:06.903Z,99.99
2017-05-14T05:20:07.906Z,99.99
2017-05-14T05:30:06.910Z,99.99
2017-05-14T05:40:08.909Z,99.99
2017-05-14T06:00:17.741Z,99.99
2017-05-14T06:10:17.229Z,99.99
2017-05-14T06:20:06.903Z,99.99
2017-05-14T06:30:06.910Z,99.99
2017-05-14T06:40:06.913Z,99.99
2017-05-14T07:00:08.973Z,68.43
2017-05-14T07:10:12.832Z,59.69
2017-05-14T07:20:06.910Z,63.59
2017-05-14T07:30:06.912Z,64.34
2017-05-14T07:40:09.033Z,66.02
2017-05-14T07:50:19.162Z,60.37
2017-05-14T08:00:06.929Z,55.24
2017-05-14T08:10:06.935Z,44.54
2017-05-14T08:20:06.941Z,39.8
2017-05-14T08:30:06.929Z,43.79
2017-05-14T08:40:06.940Z,45.35
2017-05-14T08:50:08.061Z,41.9
2017-05-14T09:00:06.959Z,45.35
2017-05-14T09:10:13.248Z,49.07
2017-05-14T09:20:06.962Z,50.5
2017-05-14T09:30:06.944Z,53.72
2017-05-14T09:50:11.974Z,55.51
2017-05-14T10:10:09.040Z,53.57
2017-05-14T10:20:10.815Z,54.93
2017-05-14T10:40:06.973Z,56.35
2017-05-14T10:50:06.970Z,56.11
2017-05-14T11:00:06.959Z,54.73
2017-05-14T11:10:18.384Z,55.78
2017-05-14T11:20:09.087Z,53.99
2017-05-14T11:30:06.973Z,56.2
2017-05-14T11:40:06.982Z,51.2
2017-05-14T11:50:06.982Z,50.26
2017-05-14T12:00:06.974Z,48.13
2017-05-14T12:10:06.986Z,55.36
2017-05-14T12:20:07.030Z,75.84
2017-05-14T12:50:06.989Z,72.37
2017-05-14T13:00:07.017Z,69.58
2017-05-14T13:20:09.426Z,66.01
2017-05-14T13:30:06.999Z,65.88
2017-05-14T13:50:06.999Z,64.05
2017-05-14T14:10:06.994Z,60.79
2017-05-14T14:20:06.996Z,60.41
2017-05-14T14:30:07.029Z,63.18
2017-05-14T15:00:18.293Z,62.44
2017-05-14T15:10:09.126Z,63.79
2017-05-14T15:20:07.030Z,61.86
2017-05-14T15:30:07.027Z,63.08
2017-05-14T15:40:10.964Z,64.24
2017-05-14T15:50:18.092Z,64.18
2017-05-14T16:00:07.017Z,60.47
2017-05-14T16:20:07.050Z,55.01
2017-05-14T16:30:07.065Z,57.68
2017-05-14T16:40:07.033Z,61.32
2017-05-14T16:50:08.113Z,66.59
2017-05-14T17:00:08.077Z,73.84
2017-05-14T17:10:07.030Z,74.44
2017-05-14T17:20:17.539Z,76.56
2017-05-14T17:50:07.042Z,79.79
2017-05-14T18:10:07.058Z,76.17
2017-05-14T18:20:14.730Z,75.4
2017-05-14T18:30:07.061Z,76.77
2017-05-14T18:40:07.046Z,78.55
2017-05-14T18:50:07.100Z,79.09
2017-05-14T19:00:07.060Z,80.4
2017-05-14T19:10:07.061Z,82.31
2017-05-14T19:30:07.052Z,86.11
2017-05-14T19:40:07.067Z,90.47
2017-05-14T19:50:07.052Z,92.06
2017-05-14T20:00:15.273Z,95.98
2017-05-14T20:20:11.795Z,99.99
2017-05-14T21:20:11.275Z,99.99
2017-05-14T21:30:07.040Z,99.99
2017-05-14T22:20:12.141Z,99.99
2017-05-14T22:40:07.034Z,99.99
2017-05-14T23:00:07.034Z,99.99
2017-05-14T23:10:07.033Z,99.99
2017-05-14T23:20:07.022Z,99.99
2017-05-14T23:30:07.024Z,99.99
2017-05-14T23:40:07.029Z,99.99
2017-05-14T23:50:07.018Z,99.99
